sensor_id;sensor_type;location;lat;lon;timestamp;P1;durP1;ratioP1;P2;durP2;ratioP2
48550;SDS011;34397;51.176;6.738;2023-04-22T00:01:12;4.65;;;3.80;;
48550;SDS011;34397;51.176;6.738;2023-04-22T00:03:44;6.47;;;3.25;;
48550;SDS011;34397;51.176;6.738;2023-04-22T00:06:16;4.03;;;3.20;;
48550;SDS011;34397;51.176;6.738;2023-04-22T00:08:48;4.85;;;3.67;;
48550;SDS011;34397;51.176;6.738;2023-04-22T00:11:20;4.55;;;3.83;;
48550;SDS011;34397;51.176;6.738;2023-04-22T00:17:39;5.93;;;4.43;;
48550;SDS011;34397;51.176;6.738;2023-04-22T00:20:11;5.07;;;4.00;;
48550;SDS011;34397;51.176;6.738;2023-04-22T00:22:44;5.32;;;4.30;;
48550;SDS011;34397;51.176;6.738;2023-04-22T00:25:16;5.90;;;4.40;;
48550;SDS011;34397;51.176;6.738;2023-04-22T00:27:48;5.05;;;3.83;;
48550;SDS011;34397;51.176;6.738;2023-04-22T00:30:20;4.05;;;3.47;;
48550;SDS011;34397;51.176;6.738;2023-04-22T00:32:53;4.15;;;3.20;;
48550;SDS011;34397;51.176;6.738;2023-04-22T00:35:25;5.07;;;3.67;;
48550;SDS011;34397;51.176;6.738;2023-04-22T00:37:56;3.85;;;3.45;;
48550;SDS011;34397;51.176;6.738;2023-04-22T00:40:28;4.57;;;3.67;;
48550;SDS011;34397;51.176;6.738;2023-04-22T00:43:00;4.57;;;3.67;;
48550;SDS011;34397;51.176;6.738;2023-04-22T00:45:34;6.15;;;3.85;;
48550;SDS011;34397;51.176;6.738;2023-04-22T00:48:08;5.15;;;3.83;;
48550;SDS011;34397;51.176;6.738;2023-04-22T00:50:40;6.93;;;4.10;;
48550;SDS011;34397;51.176;6.738;2023-04-22T00:53:12;5.88;;;4.43;;
48550;SDS011;34397;51.176;6.738;2023-04-22T00:55:44;4.47;;;3.53;;
48550;SDS011;34397;51.176;6.738;2023-04-22T00:58:16;4.75;;;4.07;;
48550;SDS011;34397;51.176;6.738;2023-04-22T01:00:49;5.38;;;3.60;;
48550;SDS011;34397;51.176;6.738;2023-04-22T01:03:23;5.07;;;3.55;;
48550;SDS011;34397;51.176;6.738;2023-04-22T01:05:59;5.15;;;3.80;;
48550;SDS011;34397;51.176;6.738;2023-04-22T01:08:31;5.10;;;4.20;;
48550;SDS011;34397;51.176;6.738;2023-04-22T01:11:04;5.30;;;4.47;;
48550;SDS011;34397;51.176;6.738;2023-04-22T01:13:36;7.00;;;5.22;;
48550;SDS011;34397;51.176;6.738;2023-04-22T01:16:08;7.70;;;5.30;;
48550;SDS011;34397;51.176;6.738;2023-04-22T01:18:42;7.18;;;5.55;;
48550;SDS011;34397;51.176;6.738;2023-04-22T01:21:14;6.97;;;4.97;;
48550;SDS011;34397;51.176;6.738;2023-04-22T01:23:47;8.18;;;6.18;;
48550;SDS011;34397;51.176;6.738;2023-04-22T01:26:20;7.85;;;5.65;;
48550;SDS011;34397;51.176;6.738;2023-04-22T01:28:52;7.25;;;5.68;;
48550;SDS011;34397;51.176;6.738;2023-04-22T01:31:24;7.78;;;5.00;;
48550;SDS011;34397;51.176;6.738;2023-04-22T01:33:56;8.45;;;5.13;;
48550;SDS011;34397;51.176;6.738;2023-04-22T01:36:28;6.75;;;4.82;;
48550;SDS011;34397;51.176;6.738;2023-04-22T01:39:03;6.10;;;4.15;;
48550;SDS011;34397;51.176;6.738;2023-04-22T01:41:35;5.93;;;4.82;;
48550;SDS011;34397;51.176;6.738;2023-04-22T01:44:06;6.00;;;4.53;;
48550;SDS011;34397;51.176;6.738;2023-04-22T01:46:38;5.32;;;4.65;;
48550;SDS011;34397;51.176;6.738;2023-04-22T01:49:10;5.65;;;4.05;;
48550;SDS011;34397;51.176;6.738;2023-04-22T01:51:42;6.00;;;4.93;;
48550;SDS011;34397;51.176;6.738;2023-04-22T01:54:15;5.75;;;4.50;;
48550;SDS011;34397;51.176;6.738;2023-04-22T01:56:50;5.40;;;4.60;;
48550;SDS011;34397;51.176;6.738;2023-04-22T01:59:23;5.82;;;4.50;;
48550;SDS011;34397;51.176;6.738;2023-04-22T02:01:55;9.57;;;4.68;;
48550;SDS011;34397;51.176;6.738;2023-04-22T02:04:26;7.80;;;4.97;;
48550;SDS011;34397;51.176;6.738;2023-04-22T02:06:58;7.10;;;4.80;;
48550;SDS011;34397;51.176;6.738;2023-04-22T02:09:32;7.93;;;5.10;;
48550;SDS011;34397;51.176;6.738;2023-04-22T02:12:04;6.05;;;4.78;;
48550;SDS011;34397;51.176;6.738;2023-04-22T02:14:36;7.68;;;4.80;;
48550;SDS011;34397;51.176;6.738;2023-04-22T02:17:08;7.40;;;5.30;;
48550;SDS011;34397;51.176;6.738;2023-04-22T02:19:39;7.68;;;5.20;;
48550;SDS011;34397;51.176;6.738;2023-04-22T02:22:11;6.32;;;5.00;;
48550;SDS011;34397;51.176;6.738;2023-04-22T02:24:45;8.27;;;5.05;;
48550;SDS011;34397;51.176;6.738;2023-04-22T02:27:17;7.75;;;5.10;;
48550;SDS011;34397;51.176;6.738;2023-04-22T02:29:49;7.63;;;5.28;;
48550;SDS011;34397;51.176;6.738;2023-04-22T02:32:20;7.25;;;4.60;;
48550;SDS011;34397;51.176;6.738;2023-04-22T02:34:52;4.18;;;3.50;;
48550;SDS011;34397;51.176;6.738;2023-04-22T02:37:24;5.10;;;3.85;;
48550;SDS011;34397;51.176;6.738;2023-04-22T02:39:57;5.53;;;3.78;;
48550;SDS011;34397;51.176;6.738;2023-04-22T02:42:29;5.10;;;3.50;;
48550;SDS011;34397;51.176;6.738;2023-04-22T02:45:01;5.35;;;3.60;;
48550;SDS011;34397;51.176;6.738;2023-04-22T02:47:33;4.40;;;3.25;;
48550;SDS011;34397;51.176;6.738;2023-04-22T02:50:05;4.32;;;3.03;;
48550;SDS011;34397;51.176;6.738;2023-04-22T02:52:38;4.18;;;2.80;;
48550;SDS011;34397;51.176;6.738;2023-04-22T02:55:11;3.47;;;2.92;;
48550;SDS011;34397;51.176;6.738;2023-04-22T02:57:43;6.00;;;3.03;;
48550;SDS011;34397;51.176;6.738;2023-04-22T03:00:15;3.72;;;2.90;;
48550;SDS011;34397;51.176;6.738;2023-04-22T03:02:47;4.28;;;3.15;;
48550;SDS011;34397;51.176;6.738;2023-04-22T03:05:19;3.15;;;2.80;;
48550;SDS011;34397;51.176;6.738;2023-04-22T03:07:51;5.32;;;2.78;;
48550;SDS011;34397;51.176;6.738;2023-04-22T03:10:24;2.97;;;2.50;;
48550;SDS011;34397;51.176;6.738;2023-04-22T03:12:56;3.05;;;2.33;;
48550;SDS011;34397;51.176;6.738;2023-04-22T03:15:28;2.47;;;2.10;;
48550;SDS011;34397;51.176;6.738;2023-04-22T03:18:00;3.63;;;2.15;;
48550;SDS011;34397;51.176;6.738;2023-04-22T03:20:32;4.68;;;2.28;;
48550;SDS011;34397;51.176;6.738;2023-04-22T03:23:04;3.10;;;2.33;;
48550;SDS011;34397;51.176;6.738;2023-04-22T03:25:38;2.38;;;2.10;;
48550;SDS011;34397;51.176;6.738;2023-04-22T03:28:10;3.05;;;2.25;;
48550;SDS011;34397;51.176;6.738;2023-04-22T03:30:41;3.47;;;2.38;;
48550;SDS011;34397;51.176;6.738;2023-04-22T03:33:13;2.95;;;2.08;;
48550;SDS011;34397;51.176;6.738;2023-04-22T03:35:46;3.03;;;2.40;;
48550;SDS011;34397;51.176;6.738;2023-04-22T03:38:18;3.22;;;2.38;;
48550;SDS011;34397;51.176;6.738;2023-04-22T03:40:51;2.88;;;2.50;;
48550;SDS011;34397;51.176;6.738;2023-04-22T03:43:23;3.40;;;2.55;;
48550;SDS011;34397;51.176;6.738;2023-04-22T03:45:55;3.67;;;2.45;;
48550;SDS011;34397;51.176;6.738;2023-04-22T03:48:29;5.13;;;2.67;;
48550;SDS011;34397;51.176;6.738;2023-04-22T03:51:04;3.03;;;2.33;;
48550;SDS011;34397;51.176;6.738;2023-04-22T03:53:36;4.07;;;2.50;;
48550;SDS011;34397;51.176;6.738;2023-04-22T03:56:09;6.22;;;2.78;;
48550;SDS011;34397;51.176;6.738;2023-04-22T03:58:41;5.22;;;2.97;;
48550;SDS011;34397;51.176;6.738;2023-04-22T04:01:13;3.85;;;2.95;;
48550;SDS011;34397;51.176;6.738;2023-04-22T04:03:45;4.90;;;2.70;;
48550;SDS011;34397;51.176;6.738;2023-04-22T04:06:16;5.03;;;3.33;;
48550;SDS011;34397;51.176;6.738;2023-04-22T04:08:48;4.28;;;2.85;;
48550;SDS011;34397;51.176;6.738;2023-04-22T04:11:21;4.28;;;3.15;;
48550;SDS011;34397;51.176;6.738;2023-04-22T04:13:53;5.80;;;3.33;;
48550;SDS011;34397;51.176;6.738;2023-04-22T04:16:25;5.13;;;3.30;;
48550;SDS011;34397;51.176;6.738;2023-04-22T04:18:57;4.47;;;3.22;;
48550;SDS011;34397;51.176;6.738;2023-04-22T04:21:29;4.20;;;3.30;;
48550;SDS011;34397;51.176;6.738;2023-04-22T04:24:02;3.50;;;2.75;;
48550;SDS011;34397;51.176;6.738;2023-04-22T04:26:37;3.85;;;3.10;;
48550;SDS011;34397;51.176;6.738;2023-04-22T04:29:08;3.00;;;2.60;;
48550;SDS011;34397;51.176;6.738;2023-04-22T04:31:42;3.90;;;2.90;;
48550;SDS011;34397;51.176;6.738;2023-04-22T04:34:14;3.58;;;2.85;;
48550;SDS011;34397;51.176;6.738;2023-04-22T04:36:46;2.75;;;2.22;;
48550;SDS011;34397;51.176;6.738;2023-04-22T04:39:18;3.58;;;2.78;;
48550;SDS011;34397;51.176;6.738;2023-04-22T04:41:51;3.35;;;2.75;;
48550;SDS011;34397;51.176;6.738;2023-04-22T04:44:27;3.08;;;2.50;;
48550;SDS011;34397;51.176;6.738;2023-04-22T04:47:00;4.70;;;3.00;;
48550;SDS011;34397;51.176;6.738;2023-04-22T04:49:33;3.85;;;2.67;;
48550;SDS011;34397;51.176;6.738;2023-04-22T04:52:08;3.47;;;2.72;;
48550;SDS011;34397;51.176;6.738;2023-04-22T04:54:40;5.97;;;3.33;;
48550;SDS011;34397;51.176;6.738;2023-04-22T04:57:14;4.30;;;3.00;;
48550;SDS011;34397;51.176;6.738;2023-04-22T04:59:45;5.63;;;3.50;;
48550;SDS011;34397;51.176;6.738;2023-04-22T05:02:17;4.85;;;3.20;;
48550;SDS011;34397;51.176;6.738;2023-04-22T05:04:49;6.13;;;3.00;;
48550;SDS011;34397;51.176;6.738;2023-04-22T05:07:21;4.65;;;3.05;;
48550;SDS011;34397;51.176;6.738;2023-04-22T05:09:52;3.47;;;2.60;;
48550;SDS011;34397;51.176;6.738;2023-04-22T05:12:26;4.00;;;2.42;;
48550;SDS011;34397;51.176;6.738;2023-04-22T05:14:57;4.43;;;2.50;;
48550;SDS011;34397;51.176;6.738;2023-04-22T05:17:30;3.38;;;2.40;;
48550;SDS011;34397;51.176;6.738;2023-04-22T05:20:02;2.88;;;2.30;;
48550;SDS011;34397;51.176;6.738;2023-04-22T05:22:34;3.42;;;2.30;;
48550;SDS011;34397;51.176;6.738;2023-04-22T05:25:07;3.05;;;2.30;;
48550;SDS011;34397;51.176;6.738;2023-04-22T05:27:41;3.97;;;2.22;;
48550;SDS011;34397;51.176;6.738;2023-04-22T05:30:13;3.35;;;2.45;;
48550;SDS011;34397;51.176;6.738;2023-04-22T05:32:45;7.82;;;3.13;;
48550;SDS011;34397;51.176;6.738;2023-04-22T05:35:16;5.50;;;2.90;;
48550;SDS011;34397;51.176;6.738;2023-04-22T05:37:48;5.32;;;3.22;;
48550;SDS011;34397;51.176;6.738;2023-04-22T05:40:20;4.50;;;3.25;;
48550;SDS011;34397;51.176;6.738;2023-04-22T05:42:54;6.57;;;3.35;;
48550;SDS011;34397;51.176;6.738;2023-04-22T05:45:27;4.57;;;3.30;;
48550;SDS011;34397;51.176;6.738;2023-04-22T05:47:58;6.95;;;3.92;;
48550;SDS011;34397;51.176;6.738;2023-04-22T05:50:30;4.53;;;3.25;;
48550;SDS011;34397;51.176;6.738;2023-04-22T05:53:02;5.60;;;3.60;;
48550;SDS011;34397;51.176;6.738;2023-04-22T05:55:34;5.32;;;3.45;;
48550;SDS011;34397;51.176;6.738;2023-04-22T05:58:07;3.97;;;3.28;;
48550;SDS011;34397;51.176;6.738;2023-04-22T06:00:39;5.50;;;3.45;;
48550;SDS011;34397;51.176;6.738;2023-04-22T06:03:10;4.72;;;3.80;;
48550;SDS011;34397;51.176;6.738;2023-04-22T06:05:42;5.30;;;3.60;;
48550;SDS011;34397;51.176;6.738;2023-04-22T06:08:14;4.72;;;3.22;;
48550;SDS011;34397;51.176;6.738;2023-04-22T06:10:46;6.65;;;3.38;;
48550;SDS011;34397;51.176;6.738;2023-04-22T06:13:19;5.53;;;3.40;;
48550;SDS011;34397;51.176;6.738;2023-04-22T06:15:51;7.57;;;3.47;;
48550;SDS011;34397;51.176;6.738;2023-04-22T06:18:23;4.45;;;3.05;;
48550;SDS011;34397;51.176;6.738;2023-04-22T06:20:55;4.70;;;3.13;;
48550;SDS011;34397;51.176;6.738;2023-04-22T06:23:27;6.10;;;3.40;;
48550;SDS011;34397;51.176;6.738;2023-04-22T06:25:58;5.75;;;3.17;;
48550;SDS011;34397;51.176;6.738;2023-04-22T06:28:32;4.88;;;3.33;;
48550;SDS011;34397;51.176;6.738;2023-04-22T06:31:04;4.20;;;2.72;;
48550;SDS011;34397;51.176;6.738;2023-04-22T06:33:36;4.95;;;2.97;;
48550;SDS011;34397;51.176;6.738;2023-04-22T06:36:08;4.70;;;2.35;;
48550;SDS011;34397;51.176;6.738;2023-04-22T06:38:39;4.32;;;2.90;;
48550;SDS011;34397;51.176;6.738;2023-04-22T06:41:12;5.05;;;2.88;;
48550;SDS011;34397;51.176;6.738;2023-04-22T06:43:45;6.88;;;2.95;;
48550;SDS011;34397;51.176;6.738;2023-04-22T06:46:18;4.20;;;2.90;;
48550;SDS011;34397;51.176;6.738;2023-04-22T06:48:50;6.47;;;2.83;;
48550;SDS011;34397;51.176;6.738;2023-04-22T06:51:22;2.85;;;2.30;;
48550;SDS011;34397;51.176;6.738;2023-04-22T06:53:54;3.17;;;2.13;;
48550;SDS011;34397;51.176;6.738;2023-04-22T06:56:27;4.05;;;2.08;;
48550;SDS011;34397;51.176;6.738;2023-04-22T06:59:00;2.58;;;2.30;;
48550;SDS011;34397;51.176;6.738;2023-04-22T07:01:32;4.35;;;2.63;;
48550;SDS011;34397;51.176;6.738;2023-04-22T07:04:04;3.55;;;2.10;;
48550;SDS011;34397;51.176;6.738;2023-04-22T07:06:35;3.38;;;2.50;;
48550;SDS011;34397;51.176;6.738;2023-04-22T07:09:07;3.55;;;2.25;;
48550;SDS011;34397;51.176;6.738;2023-04-22T07:11:39;4.15;;;2.28;;
48550;SDS011;34397;51.176;6.738;2023-04-22T07:14:12;3.03;;;2.10;;
48550;SDS011;34397;51.176;6.738;2023-04-22T07:16:45;5.20;;;2.60;;
48550;SDS011;34397;51.176;6.738;2023-04-22T07:19:17;4.53;;;2.20;;
48550;SDS011;34397;51.176;6.738;2023-04-22T07:21:48;3.25;;;2.20;;
48550;SDS011;34397;51.176;6.738;2023-04-22T07:24:20;4.60;;;2.13;;
48550;SDS011;34397;51.176;6.738;2023-04-22T07:26:52;6.15;;;2.50;;
48550;SDS011;34397;51.176;6.738;2023-04-22T07:29:25;3.47;;;2.20;;
48550;SDS011;34397;51.176;6.738;2023-04-22T07:31:57;3.55;;;2.00;;
48550;SDS011;34397;51.176;6.738;2023-04-22T07:34:29;2.92;;;2.17;;
48550;SDS011;34397;51.176;6.738;2023-04-22T07:37:01;3.45;;;2.15;;
48550;SDS011;34397;51.176;6.738;2023-04-22T07:39:33;4.55;;;2.30;;
48550;SDS011;34397;51.176;6.738;2023-04-22T07:42:05;2.55;;;2.10;;
48550;SDS011;34397;51.176;6.738;2023-04-22T07:44:39;2.88;;;2.28;;
48550;SDS011;34397;51.176;6.738;2023-04-22T07:47:10;3.40;;;2.00;;
48550;SDS011;34397;51.176;6.738;2023-04-22T07:49:42;2.25;;;2.05;;
48550;SDS011;34397;51.176;6.738;2023-04-22T07:52:14;2.72;;;2.10;;
48550;SDS011;34397;51.176;6.738;2023-04-22T07:54:46;4.13;;;2.03;;
48550;SDS011;34397;51.176;6.738;2023-04-22T07:57:18;2.60;;;1.92;;
48550;SDS011;34397;51.176;6.738;2023-04-22T07:59:52;2.13;;;1.92;;
48550;SDS011;34397;51.176;6.738;2023-04-22T08:02:24;5.00;;;2.10;;
48550;SDS011;34397;51.176;6.738;2023-04-22T08:04:56;2.63;;;2.22;;
48550;SDS011;34397;51.176;6.738;2023-04-22T08:07:28;3.03;;;1.60;;
48550;SDS011;34397;51.176;6.738;2023-04-22T08:10:00;1.98;;;1.77;;
48550;SDS011;34397;51.176;6.738;2023-04-22T08:12:31;2.22;;;2.00;;
48550;SDS011;34397;51.176;6.738;2023-04-22T08:15:05;4.40;;;1.92;;
48550;SDS011;34397;51.176;6.738;2023-04-22T08:17:38;1.55;;;1.45;;
48550;SDS011;34397;51.176;6.738;2023-04-22T08:20:10;2.42;;;1.70;;
48550;SDS011;34397;51.176;6.738;2023-04-22T08:22:44;3.00;;;1.60;;
48550;SDS011;34397;51.176;6.738;2023-04-22T08:25:16;1.58;;;1.48;;
48550;SDS011;34397;51.176;6.738;2023-04-22T08:27:48;2.42;;;1.73;;
48550;SDS011;34397;51.176;6.738;2023-04-22T08:30:21;1.80;;;1.40;;
48550;SDS011;34397;51.176;6.738;2023-04-22T08:32:53;2.30;;;1.60;;
48550;SDS011;34397;51.176;6.738;2023-04-22T08:35:25;2.00;;;1.40;;
48550;SDS011;34397;51.176;6.738;2023-04-22T08:37:57;5.43;;;1.98;;
48550;SDS011;34397;51.176;6.738;2023-04-22T08:40:29;2.13;;;1.55;;
48550;SDS011;34397;51.176;6.738;2023-04-22T08:43:01;1.77;;;1.50;;
48550;SDS011;34397;51.176;6.738;2023-04-22T08:45:35;1.75;;;1.63;;
48550;SDS011;34397;51.176;6.738;2023-04-22T08:48:09;1.45;;;1.10;;
48550;SDS011;34397;51.176;6.738;2023-04-22T08:50:42;2.90;;;1.42;;
48550;SDS011;34397;51.176;6.738;2023-04-22T08:53:17;2.65;;;1.20;;
48550;SDS011;34397;51.176;6.738;2023-04-22T08:55:49;2.95;;;1.30;;
48550;SDS011;34397;51.176;6.738;2023-04-22T08:58:22;1.58;;;1.20;;
48550;SDS011;34397;51.176;6.738;2023-04-22T09:00:55;3.90;;;1.30;;
48550;SDS011;34397;51.176;6.738;2023-04-22T09:03:28;3.58;;;1.40;;
48550;SDS011;34397;51.176;6.738;2023-04-22T09:06:01;2.55;;;1.60;;
48550;SDS011;34397;51.176;6.738;2023-04-22T09:08:35;2.22;;;1.58;;
48550;SDS011;34397;51.176;6.738;2023-04-22T09:11:06;4.95;;;1.65;;
48550;SDS011;34397;51.176;6.738;2023-04-22T09:13:38;2.83;;;1.73;;
48550;SDS011;34397;51.176;6.738;2023-04-22T09:16:13;2.65;;;1.50;;
48550;SDS011;34397;51.176;6.738;2023-04-22T09:18:45;1.83;;;1.33;;
48550;SDS011;34397;51.176;6.738;2023-04-22T09:21:17;1.73;;;1.40;;
48550;SDS011;34397;51.176;6.738;2023-04-22T09:23:49;1.92;;;1.20;;
48550;SDS011;34397;51.176;6.738;2023-04-22T09:26:24;5.43;;;1.92;;
48550;SDS011;34397;51.176;6.738;2023-04-22T09:28:56;2.10;;;1.30;;
48550;SDS011;34397;51.176;6.738;2023-04-22T09:31:31;2.53;;;1.50;;
48550;SDS011;34397;51.176;6.738;2023-04-22T09:34:03;1.40;;;1.30;;
48550;SDS011;34397;51.176;6.738;2023-04-22T09:36:35;2.85;;;1.30;;
48550;SDS011;34397;51.176;6.738;2023-04-22T09:39:07;2.60;;;1.40;;
48550;SDS011;34397;51.176;6.738;2023-04-22T09:41:39;2.42;;;1.25;;
48550;SDS011;34397;51.176;6.738;2023-04-22T09:46:48;2.53;;;1.30;;
48550;SDS011;34397;51.176;6.738;2023-04-22T09:49:20;3.83;;;1.10;;
48550;SDS011;34397;51.176;6.738;2023-04-22T09:51:54;1.70;;;1.10;;
48550;SDS011;34397;51.176;6.738;2023-04-22T09:54:27;4.75;;;1.30;;
48550;SDS011;34397;51.176;6.738;2023-04-22T09:56:59;2.55;;;1.40;;
48550;SDS011;34397;51.176;6.738;2023-04-22T10:02:04;1.80;;;1.17;;
48550;SDS011;34397;51.176;6.738;2023-04-22T10:04:36;2.15;;;1.40;;
48550;SDS011;34397;51.176;6.738;2023-04-22T10:07:08;2.08;;;1.10;;
48550;SDS011;34397;51.176;6.738;2023-04-22T10:09:40;1.90;;;1.10;;
48550;SDS011;34397;51.176;6.738;2023-04-22T10:12:12;1.88;;;1.40;;
48550;SDS011;34397;51.176;6.738;2023-04-22T10:14:44;1.67;;;1.20;;
48550;SDS011;34397;51.176;6.738;2023-04-22T10:17:18;2.33;;;1.00;;
48550;SDS011;34397;51.176;6.738;2023-04-22T10:19:50;1.48;;;1.20;;
48550;SDS011;34397;51.176;6.738;2023-04-22T10:22:25;1.80;;;1.00;;
48550;SDS011;34397;51.176;6.738;2023-04-22T10:24:58;1.20;;;1.08;;
48550;SDS011;34397;51.176;6.738;2023-04-22T10:27:30;2.30;;;1.00;;
48550;SDS011;34397;51.176;6.738;2023-04-22T10:35:11;2.42;;;1.40;;
48550;SDS011;34397;51.176;6.738;2023-04-22T10:37:44;3.00;;;1.38;;
48550;SDS011;34397;51.176;6.738;2023-04-22T10:40:18;2.42;;;1.20;;
48550;SDS011;34397;51.176;6.738;2023-04-22T10:42:51;1.50;;;1.08;;
48550;SDS011;34397;51.176;6.738;2023-04-22T10:45:24;2.03;;;1.60;;
48550;SDS011;34397;51.176;6.738;2023-04-22T10:47:58;1.83;;;1.20;;
48550;SDS011;34397;51.176;6.738;2023-04-22T10:50:34;1.80;;;1.30;;
48550;SDS011;34397;51.176;6.738;2023-04-22T10:56:14;1.35;;;1.05;;
48550;SDS011;34397;51.176;6.738;2023-04-22T10:58:48;2.60;;;1.30;;
48550;SDS011;34397;51.176;6.738;2023-04-22T11:01:20;3.17;;;1.52;;
48550;SDS011;34397;51.176;6.738;2023-04-22T11:03:53;1.63;;;1.33;;
48550;SDS011;34397;51.176;6.738;2023-04-22T11:09:45;4.15;;;1.50;;
48550;SDS011;34397;51.176;6.738;2023-04-22T11:12:40;3.53;;;1.50;;
48550;SDS011;34397;51.176;6.738;2023-04-22T11:15:13;2.63;;;1.40;;
48550;SDS011;34397;51.176;6.738;2023-04-22T11:17:49;1.83;;;1.50;;
48550;SDS011;34397;51.176;6.738;2023-04-22T11:20:24;3.00;;;1.50;;
48550;SDS011;34397;51.176;6.738;2023-04-22T11:22:56;3.03;;;1.55;;
48550;SDS011;34397;51.176;6.738;2023-04-22T11:25:28;2.25;;;1.20;;
48550;SDS011;34397;51.176;6.738;2023-04-22T11:28:00;1.90;;;1.20;;
48550;SDS011;34397;51.176;6.738;2023-04-22T11:30:32;1.55;;;1.20;;
48550;SDS011;34397;51.176;6.738;2023-04-22T11:35:37;1.90;;;1.38;;
48550;SDS011;34397;51.176;6.738;2023-04-22T11:38:11;1.80;;;1.40;;
48550;SDS011;34397;51.176;6.738;2023-04-22T11:40:43;3.15;;;1.38;;
48550;SDS011;34397;51.176;6.738;2023-04-22T11:43:15;3.08;;;1.20;;
48550;SDS011;34397;51.176;6.738;2023-04-22T11:45:48;1.63;;;1.30;;
48550;SDS011;34397;51.176;6.738;2023-04-22T11:51:07;2.80;;;1.40;;
48550;SDS011;34397;51.176;6.738;2023-04-22T11:53:48;3.10;;;1.33;;
48550;SDS011;34397;51.176;6.738;2023-04-22T11:56:20;2.10;;;1.40;;
48550;SDS011;34397;51.176;6.738;2023-04-22T11:58:52;2.47;;;1.48;;
48550;SDS011;34397;51.176;6.738;2023-04-22T12:01:24;2.05;;;1.38;;
48550;SDS011;34397;51.176;6.738;2023-04-22T12:03:58;3.95;;;1.27;;
48550;SDS011;34397;51.176;6.738;2023-04-22T12:06:31;2.45;;;1.27;;
48550;SDS011;34397;51.176;6.738;2023-04-22T12:09:03;2.70;;;1.33;;
48550;SDS011;34397;51.176;6.738;2023-04-22T12:11:37;2.85;;;1.30;;
48550;SDS011;34397;51.176;6.738;2023-04-22T12:14:09;2.33;;;1.40;;
48550;SDS011;34397;51.176;6.738;2023-04-22T12:16:42;1.77;;;1.35;;
48550;SDS011;34397;51.176;6.738;2023-04-22T12:19:14;3.55;;;1.70;;
48550;SDS011;34397;51.176;6.738;2023-04-22T12:21:47;4.35;;;1.60;;
48550;SDS011;34397;51.176;6.738;2023-04-22T12:24:19;3.45;;;1.48;;
48550;SDS011;34397;51.176;6.738;2023-04-22T12:26:58;2.72;;;1.20;;
48550;SDS011;34397;51.176;6.738;2023-04-22T12:29:30;4.32;;;1.48;;
48550;SDS011;34397;51.176;6.738;2023-04-22T12:32:03;2.38;;;1.42;;
48550;SDS011;34397;51.176;6.738;2023-04-22T12:34:35;2.25;;;1.35;;
48550;SDS011;34397;51.176;6.738;2023-04-22T12:37:08;3.92;;;1.45;;
48550;SDS011;34397;51.176;6.738;2023-04-22T12:39:40;2.28;;;1.23;;
48550;SDS011;34397;51.176;6.738;2023-04-22T12:42:12;1.63;;;1.25;;
48550;SDS011;34397;51.176;6.738;2023-04-22T12:44:44;4.60;;;1.77;;
48550;SDS011;34397;51.176;6.738;2023-04-22T12:49:47;2.70;;;1.88;;
48550;SDS011;34397;51.176;6.738;2023-04-22T12:52:21;3.05;;;1.50;;
48550;SDS011;34397;51.176;6.738;2023-04-22T12:54:53;2.13;;;1.33;;
48550;SDS011;34397;51.176;6.738;2023-04-22T12:57:25;3.13;;;1.50;;
48550;SDS011;34397;51.176;6.738;2023-04-22T12:59:57;3.40;;;1.30;;
48550;SDS011;34397;51.176;6.738;2023-04-22T13:05:01;4.28;;;1.73;;
48550;SDS011;34397;51.176;6.738;2023-04-22T13:10:07;4.72;;;1.80;;
48550;SDS011;34397;51.176;6.738;2023-04-22T13:12:41;1.88;;;1.10;;
48550;SDS011;34397;51.176;6.738;2023-04-22T13:15:13;4.90;;;1.48;;
48550;SDS011;34397;51.176;6.738;2023-04-22T13:17:47;2.38;;;1.27;;
48550;SDS011;34397;51.176;6.738;2023-04-22T13:20:18;1.98;;;1.15;;
48550;SDS011;34397;51.176;6.738;2023-04-22T13:22:52;2.42;;;1.27;;
48550;SDS011;34397;51.176;6.738;2023-04-22T13:25:24;2.97;;;1.35;;
48550;SDS011;34397;51.176;6.738;2023-04-22T13:27:55;2.47;;;1.20;;
48550;SDS011;34397;51.176;6.738;2023-04-22T13:30:27;2.90;;;1.38;;
48550;SDS011;34397;51.176;6.738;2023-04-22T13:32:59;1.55;;;1.00;;
48550;SDS011;34397;51.176;6.738;2023-04-22T13:35:32;2.05;;;1.10;;
48550;SDS011;34397;51.176;6.738;2023-04-22T13:38:05;1.77;;;1.00;;
48550;SDS011;34397;51.176;6.738;2023-04-22T13:40:37;3.58;;;1.30;;
48550;SDS011;34397;51.176;6.738;2023-04-22T13:43:09;1.58;;;1.13;;
48550;SDS011;34397;51.176;6.738;2023-04-22T13:45:41;2.40;;;1.20;;
48550;SDS011;34397;51.176;6.738;2023-04-22T13:48:13;1.58;;;1.00;;
48550;SDS011;34397;51.176;6.738;2023-04-22T13:50:45;1.15;;;0.90;;
48550;SDS011;34397;51.176;6.738;2023-04-22T13:53:18;1.20;;;1.00;;
48550;SDS011;34397;51.176;6.738;2023-04-22T13:55:50;2.90;;;1.13;;
48550;SDS011;34397;51.176;6.738;2023-04-22T13:58:22;2.63;;;1.20;;
48550;SDS011;34397;51.176;6.738;2023-04-22T14:00:54;1.85;;;1.10;;
48550;SDS011;34397;51.176;6.738;2023-04-22T14:03:25;1.10;;;1.00;;
48550;SDS011;34397;51.176;6.738;2023-04-22T14:05:59;2.22;;;1.33;;
48550;SDS011;34397;51.176;6.738;2023-04-22T14:08:34;1.20;;;1.10;;
48550;SDS011;34397;51.176;6.738;2023-04-22T14:11:07;1.52;;;1.10;;
48550;SDS011;34397;51.176;6.738;2023-04-22T14:16:10;2.03;;;1.35;;
48550;SDS011;34397;51.176;6.738;2023-04-22T14:21:14;4.80;;;1.67;;
48550;SDS011;34397;51.176;6.738;2023-04-22T14:23:47;2.05;;;1.20;;
48550;SDS011;34397;51.176;6.738;2023-04-22T14:26:19;2.10;;;1.00;;
48550;SDS011;34397;51.176;6.738;2023-04-22T14:28:51;1.90;;;1.30;;
48550;SDS011;34397;51.176;6.738;2023-04-22T14:31:23;3.38;;;1.00;;
48550;SDS011;34397;51.176;6.738;2023-04-22T14:33:55;1.95;;;1.45;;
48550;SDS011;34397;51.176;6.738;2023-04-22T14:36:27;1.95;;;1.48;;
48550;SDS011;34397;51.176;6.738;2023-04-22T14:39:01;2.65;;;1.52;;
48550;SDS011;34397;51.176;6.738;2023-04-22T14:41:34;2.63;;;1.30;;
48550;SDS011;34397;51.176;6.738;2023-04-22T14:44:06;2.60;;;1.52;;
48550;SDS011;34397;51.176;6.738;2023-04-22T14:46:37;4.82;;;1.90;;
48550;SDS011;34397;51.176;6.738;2023-04-22T14:49:09;1.80;;;1.38;;
48550;SDS011;34397;51.176;6.738;2023-04-22T14:51:41;2.13;;;1.40;;
48550;SDS011;34397;51.176;6.738;2023-04-22T14:54:14;2.38;;;1.52;;
48550;SDS011;34397;51.176;6.738;2023-04-22T14:56:46;1.50;;;1.25;;
48550;SDS011;34397;51.176;6.738;2023-04-22T14:59:20;1.90;;;1.42;;
48550;SDS011;34397;51.176;6.738;2023-04-22T15:01:52;2.90;;;1.50;;
48550;SDS011;34397;51.176;6.738;2023-04-22T15:04:25;5.22;;;1.05;;
48550;SDS011;34397;51.176;6.738;2023-04-22T15:06:57;1.45;;;0.90;;
48550;SDS011;34397;51.176;6.738;2023-04-22T15:09:31;1.85;;;0.90;;
48550;SDS011;34397;51.176;6.738;2023-04-22T15:12:03;3.13;;;1.25;;
48550;SDS011;34397;51.176;6.738;2023-04-22T15:14:35;2.65;;;1.30;;
48550;SDS011;34397;51.176;6.738;2023-04-22T15:17:08;1.65;;;1.10;;
48550;SDS011;34397;51.176;6.738;2023-04-22T15:19:40;2.28;;;1.00;;
48550;SDS011;34397;51.176;6.738;2023-04-22T15:22:12;3.83;;;1.88;;
48550;SDS011;34397;51.176;6.738;2023-04-22T15:24:45;2.90;;;1.40;;
48550;SDS011;34397;51.176;6.738;2023-04-22T15:27:17;3.65;;;0.82;;
48550;SDS011;34397;51.176;6.738;2023-04-22T15:29:49;1.70;;;1.00;;
48550;SDS011;34397;51.176;6.738;2023-04-22T15:34:53;3.88;;;1.60;;
48550;SDS011;34397;51.176;6.738;2023-04-22T15:37:25;3.33;;;1.17;;
48550;SDS011;34397;51.176;6.738;2023-04-22T15:39:58;2.58;;;1.20;;
48550;SDS011;34397;51.176;6.738;2023-04-22T15:42:30;5.28;;;1.30;;
48550;SDS011;34397;51.176;6.738;2023-04-22T15:45:02;2.85;;;1.13;;
48550;SDS011;34397;51.176;6.738;2023-04-22T15:47:35;1.25;;;0.73;;
48550;SDS011;34397;51.176;6.738;2023-04-22T15:50:08;1.55;;;0.75;;
48550;SDS011;34397;51.176;6.738;2023-04-22T15:52:41;1.65;;;0.90;;
48550;SDS011;34397;51.176;6.738;2023-04-22T15:55:14;1.98;;;1.33;;
48550;SDS011;34397;51.176;6.738;2023-04-22T15:57:45;2.13;;;1.23;;
48550;SDS011;34397;51.176;6.738;2023-04-22T16:00:17;3.70;;;1.15;;